sensor_id;sensor_type;location;lat;lon;timestamp;pressure;altitude;pressure_sealevel;temperature;humidity
62374;BME280;48409;49.030;1.820;2022-07-29T00:02:08;100776.66;;;21.56;39.50
62374;BME280;48409;49.030;1.820;2022-07-29T00:04:34;100783.03;;;21.55;39.71
62374;BME280;48409;49.030;1.820;2022-07-29T00:07:00;100780.59;;;21.52;39.61
62374;BME280;48409;49.030;1.820;2022-07-29T00:09:25;100786.25;;;21.49;39.67
62374;BME280;48409;49.030;1.820;2022-07-29T00:11:50;100788.22;;;21.47;39.81
62374;BME280;48409;49.030;1.820;2022-07-29T00:14:16;100783.00;;;21.45;39.80
62374;BME280;48409;49.030;1.820;2022-07-29T00:16:41;100780.59;;;21.42;39.67
62374;BME280;48409;49.030;1.820;2022-07-29T00:19:06;100779.19;;;21.38;39.67
62374;BME280;48409;49.030;1.820;2022-07-29T00:21:32;100774.00;;;21.36;39.70
62374;BME280;48409;49.030;1.820;2022-07-29T00:23:57;100774.25;;;21.33;39.89
62374;BME280;48409;49.030;1.820;2022-07-29T00:26:23;100771.84;;;21.30;39.93
62374;BME280;48409;49.030;1.820;2022-07-29T00:28:48;100768.47;;;21.28;39.77
62374;BME280;48409;49.030;1.820;2022-07-29T00:31:13;100768.75;;;21.25;40.03
62374;BME280;48409;49.030;1.820;2022-07-29T00:33:39;100776.06;;;21.23;39.99
62374;BME280;48409;49.030;1.820;2022-07-29T00:36:04;100765.66;;;21.20;40.05
62374;BME280;48409;49.030;1.820;2022-07-29T00:38:30;100765.78;;;21.18;39.88
62374;BME280;48409;49.030;1.820;2022-07-29T00:40:55;100762.53;;;21.15;40.10
62374;BME280;48409;49.030;1.820;2022-07-29T00:43:20;100762.53;;;21.15;39.86
62374;BME280;48409;49.030;1.820;2022-07-29T00:45:46;100759.28;;;21.11;39.99
62374;BME280;48409;49.030;1.820;2022-07-29T00:48:11;100763.94;;;21.09;40.03
62374;BME280;48409;49.030;1.820;2022-07-29T00:50:37;100759.72;;;21.06;39.86
62374;BME280;48409;49.030;1.820;2022-07-29T00:53:03;100772.38;;;21.04;39.92
62374;BME280;48409;49.030;1.820;2022-07-29T00:55:30;100763.66;;;21.02;40.14
62374;BME280;48409;49.030;1.820;2022-07-29T00:57:57;100763.91;;;20.99;40.27
62374;BME280;48409;49.030;1.820;2022-07-29T01:00:25;100755.19;;;20.97;40.10
62374;BME280;48409;49.030;1.820;2022-07-29T01:02:51;100756.31;;;20.94;40.11
62374;BME280;48409;49.030;1.820;2022-07-29T01:05:18;100755.44;;;20.94;40.41
62374;BME280;48409;49.030;1.820;2022-07-29T01:07:46;100754.03;;;20.90;40.16
62374;BME280;48409;49.030;1.820;2022-07-29T01:10:12;100752.34;;;20.89;40.30
62374;BME280;48409;49.030;1.820;2022-07-29T01:12:39;100751.59;;;20.86;40.19
62374;BME280;48409;49.030;1.820;2022-07-29T01:15:06;100750.88;;;20.84;40.38
62374;BME280;48409;49.030;1.820;2022-07-29T01:28:45;100751.13;;;20.71;40.41
62374;BME280;48409;49.030;1.820;2022-07-29T01:31:16;100750.56;;;20.68;40.38
62374;BME280;48409;49.030;1.820;2022-07-29T01:33:45;100748.13;;;20.65;40.62
62374;BME280;48409;49.030;1.820;2022-07-29T01:36:23;100751.81;;;20.64;40.53
62374;BME280;48409;49.030;1.820;2022-07-29T01:38:59;100752.06;;;20.60;40.63
62374;BME280;48409;49.030;1.820;2022-07-29T01:41:36;100749.69;;;20.57;40.59
62374;BME280;48409;49.030;1.820;2022-07-29T01:44:13;100753.31;;;20.56;40.64
62374;BME280;48409;49.030;1.820;2022-07-29T01:46:45;100754.31;;;20.55;40.78
62374;BME280;48409;49.030;1.820;2022-07-29T01:49:17;100746.69;;;20.51;40.74
62374;BME280;48409;49.030;1.820;2022-07-29T01:51:52;100749.50;;;20.49;40.78
62374;BME280;48409;49.030;1.820;2022-07-29T01:54:35;100755.84;;;20.48;40.70
62374;BME280;48409;49.030;1.820;2022-07-29T01:57:03;100756.97;;;20.45;40.92
62374;BME280;48409;49.030;1.820;2022-07-29T01:59:31;100764.25;;;20.43;40.79
62374;BME280;48409;49.030;1.820;2022-07-29T02:01:59;100762.56;;;20.42;40.87
62374;BME280;48409;49.030;1.820;2022-07-29T02:04:26;100750.31;;;20.40;40.97
62374;BME280;48409;49.030;1.820;2022-07-29T02:06:54;100762.97;;;20.38;40.94
62374;BME280;48409;49.030;1.820;2022-07-29T02:09:23;100767.59;;;20.35;40.97
62374;BME280;48409;49.030;1.820;2022-07-29T02:11:52;100762.38;;;20.34;40.93
62374;BME280;48409;49.030;1.820;2022-07-29T02:14:20;100766.19;;;20.31;41.02
62374;BME280;48409;49.030;1.820;2022-07-29T02:16:49;100775.19;;;20.30;41.08
62374;BME280;48409;49.030;1.820;2022-07-29T02:19:17;100773.47;;;20.29;41.11
62374;BME280;48409;49.030;1.820;2022-07-29T02:21:44;100771.91;;;20.27;40.97
62374;BME280;48409;49.030;1.820;2022-07-29T02:24:11;100779.22;;;20.25;41.05
62374;BME280;48409;49.030;1.820;2022-07-29T02:26:40;100775.69;;;20.24;41.07
62374;BME280;48409;49.030;1.820;2022-07-29T02:29:08;100776.81;;;20.21;40.98
62374;BME280;48409;49.030;1.820;2022-07-29T02:31:35;100770.75;;;20.19;41.06
62374;BME280;48409;49.030;1.820;2022-07-29T02:34:06;100768.22;;;20.18;40.92
62374;BME280;48409;49.030;1.820;2022-07-29T02:36:32;100775.38;;;20.17;40.93
62374;BME280;48409;49.030;1.820;2022-07-29T02:39:00;100775.63;;;20.14;41.09
62374;BME280;48409;49.030;1.820;2022-07-29T02:41:35;100775.78;;;20.13;41.21
62374;BME280;48409;49.030;1.820;2022-07-29T02:44:06;100780.41;;;20.11;41.28
62374;BME280;48409;49.030;1.820;2022-07-29T02:46:35;100774.34;;;20.08;41.28
62374;BME280;48409;49.030;1.820;2022-07-29T02:49:06;100783.34;;;20.07;41.27
62374;BME280;48409;49.030;1.820;2022-07-29T02:51:41;100787.13;;;20.05;41.24
62374;BME280;48409;49.030;1.820;2022-07-29T02:54:10;100781.19;;;20.01;41.53
62374;BME280;48409;49.030;1.820;2022-07-29T02:56:36;100783.88;;;20.01;41.36
62374;BME280;48409;49.030;1.820;2022-07-29T02:59:08;100783.16;;;19.99;41.49
62374;BME280;48409;49.030;1.820;2022-07-29T03:01:34;100776.09;;;19.98;41.28
62374;BME280;48409;49.030;1.820;2022-07-29T03:04:03;100775.38;;;19.96;41.28
62374;BME280;48409;49.030;1.820;2022-07-29T03:06:30;100776.34;;;19.95;41.55
62374;BME280;48409;49.030;1.820;2022-07-29T03:08:58;100788.00;;;19.94;41.45
62374;BME280;48409;49.030;1.820;2022-07-29T03:11:25;100781.94;;;19.92;41.53
62374;BME280;48409;49.030;1.820;2022-07-29T03:13:50;100782.94;;;19.91;41.59
62374;BME280;48409;49.030;1.820;2022-07-29T03:16:18;100779.53;;;19.89;41.52
62374;BME280;48409;49.030;1.820;2022-07-29T03:18:44;100781.38;;;19.88;41.53
62374;BME280;48409;49.030;1.820;2022-07-29T03:21:10;100784.16;;;19.87;41.75
62374;BME280;48409;49.030;1.820;2022-07-29T03:23:35;100786.97;;;19.85;41.67
62374;BME280;48409;49.030;1.820;2022-07-29T03:26:01;100795.09;;;19.83;41.43
62374;BME280;48409;49.030;1.820;2022-07-29T03:28:26;100791.72;;;19.81;41.47
62374;BME280;48409;49.030;1.820;2022-07-29T03:30:53;100791.00;;;19.79;41.53
62374;BME280;48409;49.030;1.820;2022-07-29T03:33:18;100786.63;;;19.78;41.59
62374;BME280;48409;49.030;1.820;2022-07-29T03:35:43;100789.44;;;19.77;41.65
62374;BME280;48409;49.030;1.820;2022-07-29T03:38:09;100793.09;;;19.76;41.75
62374;BME280;48409;49.030;1.820;2022-07-29T03:40:44;100788.84;;;19.73;41.82
62374;BME280;48409;49.030;1.820;2022-07-29T03:43:13;100795.16;;;19.72;41.74
62374;BME280;48409;49.030;1.820;2022-07-29T03:45:42;100782.06;;;19.69;41.61
62374;BME280;48409;49.030;1.820;2022-07-29T03:48:12;100791.06;;;19.68;41.67
62374;BME280;48409;49.030;1.820;2022-07-29T03:50:39;100793.00;;;19.66;41.92
62374;BME280;48409;49.030;1.820;2022-07-29T03:53:04;100788.63;;;19.65;41.85
62374;BME280;48409;49.030;1.820;2022-07-29T03:55:35;100794.09;;;19.63;41.68
62374;BME280;48409;49.030;1.820;2022-07-29T03:58:01;100782.56;;;19.63;41.84
62374;BME280;48409;49.030;1.820;2022-07-29T04:00:28;100784.53;;;19.61;41.74
62374;BME280;48409;49.030;1.820;2022-07-29T04:02:55;100783.66;;;19.60;41.83
62374;BME280;48409;49.030;1.820;2022-07-29T04:05:22;100786.34;;;19.60;41.98
62374;BME280;48409;49.030;1.820;2022-07-29T04:07:48;100777.63;;;19.58;42.11
62374;BME280;48409;49.030;1.820;2022-07-29T04:10:15;100784.78;;;19.57;41.94
62374;BME280;48409;49.030;1.820;2022-07-29T04:12:40;100780.41;;;19.56;41.92
62374;BME280;48409;49.030;1.820;2022-07-29T04:15:06;100779.72;;;19.54;42.19
62374;BME280;48409;49.030;1.820;2022-07-29T04:17:32;100791.34;;;19.53;42.21
62374;BME280;48409;49.030;1.820;2022-07-29T04:19:57;100785.28;;;19.51;42.00
62374;BME280;48409;49.030;1.820;2022-07-29T04:22:23;100785.28;;;19.51;42.00
62374;BME280;48409;49.030;1.820;2022-07-29T04:24:48;100785.28;;;19.51;42.06
62374;BME280;48409;49.030;1.820;2022-07-29T04:27:13;100794.28;;;19.50;42.22
62374;BME280;48409;49.030;1.820;2022-07-29T04:29:39;100794.41;;;19.49;42.33
62374;BME280;48409;49.030;1.820;2022-07-29T04:32:04;100792.56;;;19.49;42.30
62374;BME280;48409;49.030;1.820;2022-07-29T04:34:30;100799.88;;;19.47;42.35
62374;BME280;48409;49.030;1.820;2022-07-29T04:36:55;100801.56;;;19.48;42.23
62374;BME280;48409;49.030;1.820;2022-07-29T04:39:21;100796.22;;;19.48;42.42
62374;BME280;48409;49.030;1.820;2022-07-29T04:41:46;100792.56;;;19.49;42.37
62374;BME280;48409;49.030;1.820;2022-07-29T04:44:12;100806.91;;;19.48;42.37
62374;BME280;48409;49.030;1.820;2022-07-29T04:46:38;100812.25;;;19.48;42.49
62374;BME280;48409;49.030;1.820;2022-07-29T04:49:03;100809.56;;;19.48;42.33
62374;BME280;48409;49.030;1.820;2022-07-29T04:51:29;100812.25;;;19.48;42.65
62374;BME280;48409;49.030;1.820;2022-07-29T04:53:54;100813.94;;;19.49;42.57
62374;BME280;48409;49.030;1.820;2022-07-29T04:56:19;100811.25;;;19.49;42.45
62374;BME280;48409;49.030;1.820;2022-07-29T04:58:45;100813.94;;;19.49;42.48
62374;BME280;48409;49.030;1.820;2022-07-29T05:01:10;100823.66;;;19.50;42.50
62374;BME280;48409;49.030;1.820;2022-07-29T05:03:36;100821.00;;;19.50;42.44
62374;BME280;48409;49.030;1.820;2022-07-29T05:06:01;100817.34;;;19.51;42.50
62374;BME280;48409;49.030;1.820;2022-07-29T05:08:26;100815.66;;;19.50;42.82
62374;BME280;48409;49.030;1.820;2022-07-29T05:10:52;100815.66;;;19.50;42.97
62374;BME280;48409;49.030;1.820;2022-07-29T05:13:17;100821.00;;;19.50;42.54
62374;BME280;48409;49.030;1.820;2022-07-29T05:15:43;100825.47;;;19.50;42.79
62374;BME280;48409;49.030;1.820;2022-07-29T05:18:08;100826.34;;;19.50;42.68
62374;BME280;48409;49.030;1.820;2022-07-29T05:20:34;100826.34;;;19.50;42.69
62374;BME280;48409;49.030;1.820;2022-07-29T05:23:00;100828.03;;;19.51;42.78
62374;BME280;48409;49.030;1.820;2022-07-29T05:25:27;100830.72;;;19.51;42.74
62374;BME280;48409;49.030;1.820;2022-07-29T05:27:53;100831.69;;;19.50;42.67
62374;BME280;48409;49.030;1.820;2022-07-29T05:30:18;100829.00;;;19.50;42.93
62374;BME280;48409;49.030;1.820;2022-07-29T05:32:44;100834.34;;;19.50;42.92
62374;BME280;48409;49.030;1.820;2022-07-29T05:35:10;100838.72;;;19.51;42.86
62374;BME280;48409;49.030;1.820;2022-07-29T05:37:36;100840.66;;;19.49;42.94
62374;BME280;48409;49.030;1.820;2022-07-29T05:40:03;100846.72;;;19.51;42.89
62374;BME280;48409;49.030;1.820;2022-07-29T05:42:30;100838.72;;;19.51;43.14
62374;BME280;48409;49.030;1.820;2022-07-29T05:44:55;100835.94;;;19.53;42.99
62374;BME280;48409;49.030;1.820;2022-07-29T05:47:22;100830.59;;;19.53;43.02
62374;BME280;48409;49.030;1.820;2022-07-29T05:49:47;100838.47;;;19.54;43.01
62374;BME280;48409;49.030;1.820;2022-07-29T05:52:14;100838.31;;;19.56;43.23
62374;BME280;48409;49.030;1.820;2022-07-29T05:54:39;100841.84;;;19.56;43.12
62374;BME280;48409;49.030;1.820;2022-07-29T05:57:05;100844.41;;;19.58;42.99
62374;BME280;48409;49.030;1.820;2022-07-29T05:59:34;100841.63;;;19.60;43.14
62374;BME280;48409;49.030;1.820;2022-07-29T06:02:00;100846.84;;;19.61;43.26
62374;BME280;48409;49.030;1.820;2022-07-29T06:04:25;100847.53;;;19.63;43.25
62374;BME280;48409;49.030;1.820;2022-07-29T06:06:51;100851.78;;;19.66;43.34
62374;BME280;48409;49.030;1.820;2022-07-29T06:09:16;100848.13;;;19.67;43.53
62374;BME280;48409;49.030;1.820;2022-07-29T06:11:42;100857.72;;;19.69;43.59
62374;BME280;48409;49.030;1.820;2022-07-29T06:14:07;100849.56;;;19.71;43.60
62374;BME280;48409;49.030;1.820;2022-07-29T06:16:32;100853.81;;;19.74;43.42
62374;BME280;48409;49.030;1.820;2022-07-29T06:18:58;100858.03;;;19.76;43.61
62374;BME280;48409;49.030;1.820;2022-07-29T06:21:23;100855.13;;;19.79;43.69
62374;BME280;48409;49.030;1.820;2022-07-29T06:23:48;100865.69;;;19.81;43.51
62374;BME280;48409;49.030;1.820;2022-07-29T06:26:13;100859.25;;;19.83;43.53
62374;BME280;48409;49.030;1.820;2022-07-29T06:28:39;100864.34;;;19.87;43.67
62374;BME280;48409;49.030;1.820;2022-07-29T06:31:05;100860.44;;;19.91;43.58
62374;BME280;48409;49.030;1.820;2022-07-29T06:33:30;100857.66;;;19.92;43.77
62374;BME280;48409;49.030;1.820;2022-07-29T06:35:56;100858.22;;;19.96;43.74
62374;BME280;48409;49.030;1.820;2022-07-29T06:38:21;100857.03;;;20.00;43.64
62374;BME280;48409;49.030;1.820;2022-07-29T06:40:47;100851.56;;;20.02;43.86
62374;BME280;48409;49.030;1.820;2022-07-29T06:43:37;100859.19;;;20.06;43.65
62374;BME280;48409;49.030;1.820;2022-07-29T06:46:08;100849.91;;;20.11;43.78
62374;BME280;48409;49.030;1.820;2022-07-29T06:48:34;100849.66;;;20.14;43.93
62374;BME280;48409;49.030;1.820;2022-07-29T06:51:01;100851.09;;;20.18;43.92
62374;BME280;48409;49.030;1.820;2022-07-29T06:53:27;100856.22;;;20.21;43.93
62374;BME280;48409;49.030;1.820;2022-07-29T06:55:53;100853.97;;;20.26;44.12
62374;BME280;48409;49.030;1.820;2022-07-29T06:58:18;100845.69;;;20.29;44.19
62374;BME280;48409;49.030;1.820;2022-07-29T07:00:46;100845.31;;;20.34;44.19
62374;BME280;48409;49.030;1.820;2022-07-29T07:03:13;100849.28;;;20.40;44.20
62374;BME280;48409;49.030;1.820;2022-07-29T07:05:38;100863.09;;;20.45;44.22
62374;BME280;48409;49.030;1.820;2022-07-29T07:08:04;100856.38;;;20.51;44.06
62374;BME280;48409;49.030;1.820;2022-07-29T07:10:29;100861.06;;;20.58;44.58
62374;BME280;48409;49.030;1.820;2022-07-29T07:12:55;100857.59;;;20.68;44.57
62374;BME280;48409;49.030;1.820;2022-07-29T07:15:20;100863.13;;;20.76;44.85
62374;BME280;48409;49.030;1.820;2022-07-29T07:17:48;100869.28;;;20.88;44.79
62374;BME280;48409;49.030;1.820;2022-07-29T07:20:15;100868.19;;;21.00;44.99
62374;BME280;48409;49.030;1.820;2022-07-29T07:22:40;100864.31;;;21.15;45.14
62374;BME280;48409;49.030;1.820;2022-07-29T07:25:06;100866.59;;;21.29;45.26
62374;BME280;48409;49.030;1.820;2022-07-29T07:27:31;100868.88;;;21.44;45.21
62374;BME280;48409;49.030;1.820;2022-07-29T07:29:57;100879.91;;;21.60;45.25
62374;BME280;48409;49.030;1.820;2022-07-29T07:32:22;100872.34;;;21.75;45.20
62374;BME280;48409;49.030;1.820;2022-07-29T07:34:48;100877.28;;;21.90;45.33
62374;BME280;48409;49.030;1.820;2022-07-29T07:37:13;100882.06;;;22.06;45.34
62374;BME280;48409;49.030;1.820;2022-07-29T07:39:40;100885.91;;;22.23;45.38
62374;BME280;48409;49.030;1.820;2022-07-29T07:42:05;100882.75;;;22.38;45.30
62374;BME280;48409;49.030;1.820;2022-07-29T07:44:31;100893.59;;;22.56;45.40
62374;BME280;48409;49.030;1.820;2022-07-29T07:46:56;100889.47;;;22.72;45.45
62374;BME280;48409;49.030;1.820;2022-07-29T07:49:21;100885.88;;;22.91;45.44
62374;BME280;48409;49.030;1.820;2022-07-29T07:51:47;100881.72;;;23.06;45.21
62374;BME280;48409;49.030;1.820;2022-07-29T07:54:12;100887.00;;;23.26;45.58
62374;BME280;48409;49.030;1.820;2022-07-29T07:56:37;100883.69;;;23.42;45.45
62374;BME280;48409;49.030;1.820;2022-07-29T07:59:03;100886.56;;;23.59;45.62
62374;BME280;48409;49.030;1.820;2022-07-29T08:01:28;100884.72;;;23.78;45.31
62374;BME280;48409;49.030;1.820;2022-07-29T08:03:54;100878.63;;;23.94;45.24
62374;BME280;48409;49.030;1.820;2022-07-29T08:06:19;100885.72;;;24.13;45.25
62374;BME280;48409;49.030;1.820;2022-07-29T08:08:44;100885.69;;;24.31;45.10
62374;BME280;48409;49.030;1.820;2022-07-29T08:11:09;100886.66;;;24.48;44.97
62374;BME280;48409;49.030;1.820;2022-07-29T08:13:36;100886.59;;;24.67;44.87
62374;BME280;48409;49.030;1.820;2022-07-29T08:16:01;100881.19;;;24.85;44.52
62374;BME280;48409;49.030;1.820;2022-07-29T08:18:36;100880.25;;;25.02;44.55
62374;BME280;48409;49.030;1.820;2022-07-29T08:21:01;100883.00;;;25.19;44.49
62374;BME280;48409;49.030;1.820;2022-07-29T08:23:26;100880.38;;;25.36;44.47
62374;BME280;48409;49.030;1.820;2022-07-29T08:26:00;100880.06;;;25.55;44.17
62374;BME280;48409;49.030;1.820;2022-07-29T08:28:25;100875.72;;;25.71;44.04
62374;BME280;48409;49.030;1.820;2022-07-29T08:30:51;100882.00;;;25.88;43.95
62374;BME280;48409;49.030;1.820;2022-07-29T08:33:16;100881.16;;;26.04;43.71
62374;BME280;48409;49.030;1.820;2022-07-29T08:35:41;100878.47;;;26.21;43.58
62374;BME280;48409;49.030;1.820;2022-07-29T08:38:07;100877.81;;;26.36;43.37
62374;BME280;48409;49.030;1.820;2022-07-29T08:40:32;100874.22;;;26.52;43.25
62374;BME280;48409;49.030;1.820;2022-07-29T08:42:59;100881.44;;;26.68;43.02
62374;BME280;48409;49.030;1.820;2022-07-29T08:45:24;100870.59;;;26.84;43.10
62374;BME280;48409;49.030;1.820;2022-07-29T08:47:50;100875.13;;;27.01;42.75
62374;BME280;48409;49.030;1.820;2022-07-29T08:50:15;100875.91;;;27.18;42.62
62374;BME280;48409;49.030;1.820;2022-07-29T08:52:41;100877.84;;;27.32;42.67
62374;BME280;48409;49.030;1.820;2022-07-29T08:55:09;100874.03;;;27.50;42.45
62374;BME280;48409;49.030;1.820;2022-07-29T08:57:35;100872.25;;;27.66;42.26
62374;BME280;48409;49.030;1.820;2022-07-29T09:00:03;100868.41;;;27.83;42.22
62374;BME280;48409;49.030;1.820;2022-07-29T09:02:35;100862.00;;;27.99;42.24
62374;BME280;48409;49.030;1.820;2022-07-29T09:05:04;100864.41;;;28.18;42.10
62374;BME280;48409;49.030;1.820;2022-07-29T09:07:30;100872.41;;;28.34;41.83
62374;BME280;48409;49.030;1.820;2022-07-29T09:09:55;100870.53;;;28.50;41.75
62374;BME280;48409;49.030;1.820;2022-07-29T09:12:21;100875.78;;;28.66;41.50
62374;BME280;48409;49.030;1.820;2022-07-29T09:14:47;100865.78;;;28.82;41.50
62374;BME280;48409;49.030;1.820;2022-07-29T09:17:13;100878.31;;;28.98;41.29
62374;BME280;48409;49.030;1.820;2022-07-29T09:19:41;100872.88;;;29.13;41.09
62374;BME280;48409;49.030;1.820;2022-07-29T09:22:07;100869.28;;;29.28;41.06
62374;BME280;48409;49.030;1.820;2022-07-29T09:27:00;100881.75;;;29.59;40.66
62374;BME280;48409;49.030;1.820;2022-07-29T09:29:26;100881.50;;;29.76;40.71
62374;BME280;48409;49.030;1.820;2022-07-29T09:31:54;100881.63;;;29.89;40.36
62374;BME280;48409;49.030;1.820;2022-07-29T09:34:28;100879.66;;;30.05;40.69
62374;BME280;48409;49.030;1.820;2022-07-29T09:36:55;100879.78;;;30.18;40.50
62374;BME280;48409;49.030;1.820;2022-07-29T09:39:38;100883.69;;;30.38;40.74
62374;BME280;48409;49.030;1.820;2022-07-29T09:42:11;100885.69;;;30.51;39.97
62374;BME280;48409;49.030;1.820;2022-07-29T09:44:46;100883.66;;;30.66;39.85
62374;BME280;48409;49.030;1.820;2022-07-29T09:47:13;100882.72;;;30.81;39.53
62374;BME280;48409;49.030;1.820;2022-07-29T09:49:55;100891.41;;;30.98;39.91
62374;BME280;48409;49.030;1.820;2022-07-29T09:52:23;100890.59;;;31.11;39.32
62374;BME280;48409;49.030;1.820;2022-07-29T09:54:49;100887.94;;;31.24;39.42
62374;BME280;48409;49.030;1.820;2022-07-29T09:57:28;100885.72;;;31.42;39.61
62374;BME280;48409;49.030;1.820;2022-07-29T10:00:03;100883.25;;;31.54;39.22
62374;BME280;48409;49.030;1.820;2022-07-29T10:02:32;100889.75;;;31.66;38.54
62374;BME280;48409;49.030;1.820;2022-07-29T10:05:00;100893.50;;;31.78;38.11
62374;BME280;48409;49.030;1.820;2022-07-29T10:07:25;100888.56;;;31.89;38.05
62374;BME280;48409;49.030;1.820;2022-07-29T10:09:56;100877.00;;;32.00;38.36
62374;BME280;48409;49.030;1.820;2022-07-29T10:12:22;100878.91;;;32.13;37.91
62374;BME280;48409;49.030;1.820;2022-07-29T10:14:48;100878.03;;;32.26;37.82
62374;BME280;48409;49.030;1.820;2022-07-29T10:17:15;100871.13;;;32.37;37.71
62374;BME280;48409;49.030;1.820;2022-07-29T10:19:40;100875.75;;;32.50;37.48
62374;BME280;48409;49.030;1.820;2022-07-29T10:22:09;100871.28;;;32.63;37.33
62374;BME280;48409;49.030;1.820;2022-07-29T10:24:35;100882.16;;;32.76;37.29
62374;BME280;48409;49.030;1.820;2022-07-29T10:27:04;100869.53;;;32.89;37.12
62374;BME280;48409;49.030;1.820;2022-07-29T10:29:30;100875.16;;;33.01;37.05
62374;BME280;48409;49.030;1.820;2022-07-29T10:32:33;100877.03;;;33.14;37.32
62374;BME280;48409;49.030;1.820;2022-07-29T10:35:27;100877.38;;;33.24;36.72
62374;BME280;48409;49.030;1.820;2022-07-29T10:43:44;100878.47;;;33.55;36.29
62374;BME280;48409;49.030;1.820;2022-07-29T10:46:11;100880.34;;;33.62;35.75
62374;BME280;48409;49.030;1.820;2022-07-29T10:49:15;100883.63;;;33.70;36.57
62374;BME280;48409;49.030;1.820;2022-07-29T10:54:19;100874.09;;;33.80;35.12
62374;BME280;48409;49.030;1.820;2022-07-29T10:59:45;100885.88;;;33.80;35.05
62374;BME280;48409;49.030;1.820;2022-07-29T11:05:03;100881.28;;;33.74;34.64
62374;BME280;48409;49.030;1.820;2022-07-29T11:07:30;100875.88;;;33.67;34.39
62374;BME280;48409;49.030;1.820;2022-07-29T11:15:03;100878.28;;;33.50;33.82
62374;BME280;48409;49.030;1.820;2022-07-29T11:20:32;100875.63;;;33.37;34.31
62374;BME280;48409;49.030;1.820;2022-07-29T11:22:58;100882.78;;;33.31;33.89
62374;BME280;48409;49.030;1.820;2022-07-29T11:25:24;100880.09;;;33.24;33.48
62374;BME280;48409;49.030;1.820;2022-07-29T11:27:49;100882.66;;;33.19;33.64
62374;BME280;48409;49.030;1.820;2022-07-29T11:30:16;100875.34;;;33.13;33.55
62374;BME280;48409;49.030;1.820;2022-07-29T11:32:43;100874.53;;;33.05;33.36
62374;BME280;48409;49.030;1.820;2022-07-29T11:35:21;100865.72;;;32.97;33.79
62374;BME280;48409;49.030;1.820;2022-07-29T11:41:26;100880.88;;;32.79;33.83
62374;BME280;48409;49.030;1.820;2022-07-29T11:43:59;100863.34;;;32.68;33.78
62374;BME280;48409;49.030;1.820;2022-07-29T11:46:44;100868.16;;;32.59;33.62
62374;BME280;48409;49.030;1.820;2022-07-29T11:49:19;100876.56;;;32.51;33.35
62374;BME280;48409;49.030;1.820;2022-07-29T11:51:53;100874.03;;;32.42;33.32
62374;BME280;48409;49.030;1.820;2022-07-29T11:54:30;100868.81;;;32.34;33.54
62374;BME280;48409;49.030;1.820;2022-07-29T11:56:57;100869.88;;;32.26;32.94
62374;BME280;48409;49.030;1.820;2022-07-29T11:59:24;100863.63;;;32.19;33.01
62374;BME280;48409;49.030;1.820;2022-07-29T12:01:53;100872.63;;;32.13;33.25
62374;BME280;48409;49.030;1.820;2022-07-29T12:04:19;100878.91;;;32.07;33.06
62374;BME280;48409;49.030;1.820;2022-07-29T12:06:49;100868.22;;;31.98;33.10
62374;BME280;48409;49.030;1.820;2022-07-29T12:09:15;100872.22;;;31.89;32.63
62374;BME280;48409;49.030;1.820;2022-07-29T12:11:40;100875.09;;;31.81;32.92
62374;BME280;48409;49.030;1.820;2022-07-29T12:14:07;100875.91;;;31.74;32.69
62374;BME280;48409;49.030;1.820;2022-07-29T12:16:36;100879.69;;;31.67;33.01
62374;BME280;48409;49.030;1.820;2022-07-29T12:19:03;100875.91;;;31.61;32.66
62374;BME280;48409;49.030;1.820;2022-07-29T12:24:10;100877.13;;;31.45;32.66
62374;BME280;48409;49.030;1.820;2022-07-29T12:26:36;100870.63;;;31.39;33.00
62374;BME280;48409;49.030;1.820;2022-07-29T12:29:17;100865.41;;;31.31;32.85
62374;BME280;48409;49.030;1.820;2022-07-29T12:31:43;100859.06;;;31.23;32.58
62374;BME280;48409;49.030;1.820;2022-07-29T12:34:11;100859.88;;;31.17;32.60
62374;BME280;48409;49.030;1.820;2022-07-29T12:36:37;100869.91;;;31.10;32.60
62374;BME280;48409;49.030;1.820;2022-07-29T12:39:03;100870.69;;;31.04;32.72
62374;BME280;48409;49.030;1.820;2022-07-29T12:41:29;100871.50;;;30.97;32.66
62374;BME280;48409;49.030;1.820;2022-07-29T12:43:55;100863.97;;;30.93;32.76
62374;BME280;48409;49.030;1.820;2022-07-29T12:46:20;100862.72;;;30.89;32.82
62374;BME280;48409;49.030;1.820;2022-07-29T12:48:50;100865.16;;;30.83;32.70
62374;BME280;48409;49.030;1.820;2022-07-29T12:51:28;100867.66;;;30.78;32.78
62374;BME280;48409;49.030;1.820;2022-07-29T12:54:09;100867.44;;;30.73;32.97
62374;BME280;48409;49.030;1.820;2022-07-29T12:56:42;100870.72;;;30.68;32.64
62374;BME280;48409;49.030;1.820;2022-07-29T13:01:44;100872.75;;;30.59;32.49
62374;BME280;48409;49.030;1.820;2022-07-29T13:04:09;100878.78;;;30.55;32.66
62374;BME280;48409;49.030;1.820;2022-07-29T13:06:43;100867.47;;;30.51;33.03
62374;BME280;48409;49.030;1.820;2022-07-29T13:09:12;100868.91;;;30.47;32.71
62374;BME280;48409;49.030;1.820;2022-07-29T13:11:44;100870.16;;;30.44;32.85
62374;BME280;48409;49.030;1.820;2022-07-29T13:14:11;100867.81;;;30.41;32.65
62374;BME280;48409;49.030;1.820;2022-07-29T13:17:11;100869.06;;;30.39;32.95
62374;BME280;48409;49.030;1.820;2022-07-29T13:20:04;100873.03;;;30.36;32.80
62374;BME280;48409;49.030;1.820;2022-07-29T13:22:29;100866.97;;;30.34;32.54
62374;BME280;48409;49.030;1.820;2022-07-29T13:25:00;100872.78;;;30.31;32.46
62374;BME280;48409;49.030;1.820;2022-07-29T13:27:31;100877.59;;;30.29;32.23
62374;BME280;48409;49.030;1.820;2022-07-29T13:29:58;100866.06;;;30.27;32.04
62374;BME280;48409;49.030;1.820;2022-07-29T13:32:25;100869.81;;;30.26;32.30
62374;BME280;48409;49.030;1.820;2022-07-29T13:34:51;100866.44;;;30.23;32.46
62374;BME280;48409;49.030;1.820;2022-07-29T13:37:17;100878.56;;;30.21;32.31
62374;BME280;48409;49.030;1.820;2022-07-29T13:39:43;100876.06;;;30.19;32.17